Time;durP1;ratioP1;P1;durP2;ratioP2;P2;SDS_P1;SDS_P2;PMS_P1;PMS_P2;Temp;Humidity;BMP_temperature;BMP_pressure;BME280_temperature;BME280_humidity;BME280_pressure;Samples;Min_cycle;Max_cycle;Signal;HPM_P1;HPM_P2
2023/06/12 00:03:44;;;;;;;;;;;23.30;57.10;;;;;;10326085;28;802;-73
2023/06/12 00:08:41;;;;;;;;;;;23.30;57.10;;;;;;10325853;28;1958;-73
2023/06/12 00:13:36;;;;;;;;;;;23.30;57.10;;;;;;10325803;28;886;-73
2023/06/12 00:18:32;;;;;;;;;;;23.30;57.10;;;;;;10326109;28;866;-73
2023/06/12 00:23:27;;;;;;;;;;;23.30;57.00;;;;;;10325774;28;949;-73
2023/06/12 00:28:22;;;;;;;;;;;23.30;57.00;;;;;;10325995;28;1955;-72
2023/06/12 00:33:18;;;;;;;;;;;23.30;57.00;;;;;;10325972;28;852;-72
2023/06/12 00:38:13;;;;;;;;;;;23.30;57.00;;;;;;10325218;28;1132;-72
2023/06/12 00:43:09;;;;;;;;;;;23.30;57.00;;;;;;10325337;28;853;-72
2023/06/12 00:48:05;;;;;;;;;;;23.30;57.00;;;;;;10325067;28;1976;-73
2023/06/12 00:53:00;;;;;;;;;;;23.30;57.00;;;;;;10325086;28;867;-72
2023/06/12 00:57:56;;;;;;;;;;;23.30;57.50;;;;;;10327872;28;942;-73
2023/06/12 01:02:51;;;;;;;;;;;23.30;56.90;;;;;;10332527;28;757;-72
2023/06/12 01:07:48;;;;;;;;;;;23.30;56.90;;;;;;10332761;28;943;-72
2023/06/12 01:12:44;;;;;;;;;;;23.30;56.90;;;;;;10333641;28;1898;-73
2023/06/12 01:17:41;;;;;;;;;;;23.30;56.90;;;;;;10332926;28;882;-73
2023/06/12 01:22:36;;;;;;;;;;;23.30;57.40;;;;;;10332126;28;869;-75
2023/06/12 01:27:32;;;;;;;;;;;23.30;57.50;;;;;;10332581;28;826;-73
2023/06/12 01:32:29;;;;;;;;;;;23.30;56.80;;;;;;10331619;28;1954;-72
2023/06/12 01:37:26;;;;;;;;;;;23.30;56.80;;;;;;10331132;28;1238;-72
2023/06/12 01:42:21;;;;;;;;;;;23.20;56.70;;;;;;10332014;28;912;-73
2023/06/12 01:47:16;;;;;;;;;;;23.20;56.70;;;;;;10331251;28;874;-73
2023/06/12 01:52:12;;;;;;;;;;;23.20;56.70;;;;;;10331903;28;1975;-73
2023/06/12 01:57:08;;;;;;;;;;;23.20;56.70;;;;;;10331485;28;1077;-73
2023/06/12 02:02:03;;;;;;;;;;;23.20;56.70;;;;;;10331273;28;893;-73
2023/06/12 02:06:59;;;;;;;;;;;23.20;56.70;;;;;;10330632;28;1020;-73
2023/06/12 02:11:54;;;;;;;;;;;23.20;56.70;;;;;;10329845;28;1902;-72
2023/06/12 02:16:53;;;;;;;;;;;23.20;56.70;;;;;;10329532;28;928;-73
2023/06/12 02:21:48;;;;;;;;;;;23.20;56.70;;;;;;10330245;28;876;-73
2023/06/12 02:26:44;;;;;;;;;;;23.20;56.70;;;;;;10329972;28;943;-73
2023/06/12 02:31:39;;;;;;;;;;;23.20;56.70;;;;;;10330384;28;1902;-73
2023/06/12 02:36:40;;;;;;;;;;;23.20;56.70;;;;;;10329974;28;1156;-73
2023/06/12 02:41:38;;;;;;;;;;;23.20;56.60;;;;;;10329233;28;812;-73
2023/06/12 02:46:33;;;;;;;;;;;23.20;56.60;;;;;;10329018;28;785;-73
2023/06/12 02:51:28;;;;;;;;;;;23.10;56.60;;;;;;10328926;28;1906;-73
2023/06/12 02:56:24;;;;;;;;;;;23.10;56.60;;;;;;10328622;28;852;-75
2023/06/12 03:01:20;;;;;;;;;;;23.10;56.60;;;;;;10328416;28;766;-75
2023/06/12 03:06:15;;;;;;;;;;;23.10;56.60;;;;;;10328761;28;856;-76
2023/06/12 03:11:10;;;;;;;;;;;23.10;56.60;;;;;;10328518;28;1959;-76
2023/06/12 03:16:09;;;;;;;;;;;23.10;56.60;;;;;;10327866;28;860;-76
2023/06/12 04:02:49;;;;;;;;;;;23.00;56.40;;;;;;10593392;22;2011;-74
2023/06/12 04:07:44;;;;;;;;;;;23.00;56.50;;;;;;10326616;28;892;-71
2023/06/12 04:12:40;;;;;;;;;;;23.00;56.60;;;;;;10325855;28;1918;-71
2023/06/12 04:17:38;;;;;;;;;;;22.90;56.60;;;;;;10325853;28;885;-71
2023/06/12 04:22:35;;;;;;;;;;;22.90;56.50;;;;;;10325667;28;944;-72
2023/06/12 04:27:31;;;;;;;;;;;22.90;56.70;;;;;;10325572;28;817;-71
2023/06/12 04:32:29;;;;;;;;;;;22.90;56.80;;;;;;10324766;28;2024;-72
2023/06/12 04:37:25;;;;;;;;;;;22.80;56.70;;;;;;10325344;28;879;-72
2023/06/12 04:42:23;;;;;;;;;;;22.80;56.60;;;;;;10325871;28;864;-71
2023/06/12 04:47:18;;;;;;;;;;;22.90;56.60;;;;;;10325900;28;793;-72
2023/06/12 04:52:14;;;;;;;;;;;22.80;56.50;;;;;;10325639;28;1914;-71
2023/06/12 04:57:12;;;;;;;;;;;22.80;56.60;;;;;;10325521;28;950;-72
2023/06/12 05:02:10;;;;;;;;;;;22.80;56.60;;;;;;10324515;28;1369;-71
2023/06/12 05:07:13;;;;;;;;;;;22.90;56.70;;;;;;10324749;28;960;-71
2023/06/12 05:12:08;;;;;;;;;;;22.90;56.80;;;;;;10325311;28;1922;-70
2023/06/12 05:17:04;;;;;;;;;;;22.80;56.70;;;;;;10324565;28;877;-70
2023/06/12 05:21:59;;;;;;;;;;;22.80;56.80;;;;;;10325086;28;966;-71
2023/06/12 05:26:55;;;;;;;;;;;22.80;56.80;;;;;;10324373;28;874;-70
2023/06/12 05:31:50;;;;;;;;;;;22.80;56.90;;;;;;10321919;28;1910;-71
2023/06/12 05:36:45;;;;;;;;;;;22.80;56.90;;;;;;10323985;28;876;-71
2023/06/12 05:41:41;;;;;;;;;;;22.80;56.90;;;;;;10324263;28;872;-71
2023/06/12 05:46:37;;;;;;;;;;;22.80;57.00;;;;;;10328390;28;866;-71
2023/06/12 05:51:32;;;;;;;;;;;22.80;57.00;;;;;;10331118;28;1914;-70
2023/06/12 05:56:29;;;;;;;;;;;22.80;57.00;;;;;;10331001;28;767;-71
2023/06/12 06:01:25;;;;;;;;;;;22.70;57.00;;;;;;10330442;28;1577;-71
2023/06/12 06:06:20;;;;;;;;;;;22.80;57.10;;;;;;10330569;28;881;-71
2023/06/12 06:11:15;;;;;;;;;;;22.70;57.00;;;;;;10330374;28;1984;-76
2023/06/12 06:16:11;;;;;;;;;;;22.70;57.10;;;;;;10330433;28;868;-70
2023/06/12 06:21:06;;;;;;;;;;;22.70;57.20;;;;;;10330131;28;890;-71
2023/06/12 06:26:02;;;;;;;;;;;22.70;57.20;;;;;;10329903;28;758;-71
2023/06/12 06:30:59;;;;;;;;;;;22.70;57.20;;;;;;10329774;28;1910;-71
2023/06/12 06:35:55;;;;;;;;;;;22.70;57.30;;;;;;10329494;28;872;-71
2023/06/12 06:40:50;;;;;;;;;;;22.70;57.30;;;;;;10329235;28;960;-71
2023/06/12 06:45:45;;;;;;;;;;;22.70;57.30;;;;;;10329144;28;805;-71
2023/06/12 06:50:41;;;;;;;;;;;22.70;57.50;;;;;;10329380;28;1963;-70
2023/06/12 06:55:37;;;;;;;;;;;22.70;57.50;;;;;;10328339;28;865;-70
2023/06/12 07:00:32;;;;;;;;;;;22.70;57.50;;;;;;10328762;28;1120;-70
2023/06/12 07:05:28;;;;;;;;;;;22.70;57.70;;;;;;10329495;28;865;-71
2023/06/12 07:10:23;;;;;;;;;;;22.70;57.70;;;;;;10327957;28;1985;-70
2023/06/12 07:15:19;;;;;;;;;;;22.60;57.70;;;;;;10328031;28;755;-70
2023/06/12 07:20:14;;;;;;;;;;;22.60;57.90;;;;;;10327619;28;834;-70
2023/06/12 07:25:10;;;;;;;;;;;22.60;57.90;;;;;;10327478;28;781;-71
2023/06/12 07:30:05;;;;;;;;;;;22.60;58.00;;;;;;10327211;28;1909;-71
2023/06/12 07:35:03;;;;;;;;;;;22.60;57.90;;;;;;10328473;28;808;-71
2023/06/12 07:39:58;;;;;;;;;;;22.60;57.90;;;;;;10326351;28;763;-71
2023/06/12 07:44:54;;;;;;;;;;;22.60;58.00;;;;;;10326737;28;775;-71
2023/06/12 07:49:49;;;;;;;;;;;22.60;58.10;;;;;;10327484;28;1983;-71
2023/06/12 07:54:45;;;;;;;;;;;22.60;58.20;;;;;;10326432;28;774;-70
2023/06/12 07:59:40;;;;;;;;;;;22.60;58.20;;;;;;10326653;28;1380;-70
2023/06/12 08:04:40;;;;;;;;;;;22.60;58.40;;;;;;10326724;28;916;-71
2023/06/12 08:09:36;;;;;;;;;;;22.60;58.20;;;;;;10325858;28;1922;-71
2023/06/12 08:14:31;;;;;;;;;;;22.60;58.20;;;;;;10325891;28;833;-71
2023/06/12 08:19:28;;;;;;;;;;;22.60;58.30;;;;;;10325780;28;886;-70
2023/06/12 08:24:25;;;;;;;;;;;22.60;58.20;;;;;;10327018;28;871;-70
2023/06/12 08:29:20;;;;;;;;;;;22.60;58.30;;;;;;10325954;28;1918;-68
2023/06/12 08:34:15;;;;;;;;;;;22.60;58.70;;;;;;10326081;28;817;-69
2023/06/12 08:39:11;;;;;;;;;;;22.60;58.50;;;;;;10325907;28;941;-69
2023/06/12 08:44:06;;;;;;;;;;;22.60;58.60;;;;;;10325366;28;778;-70
2023/06/12 08:49:02;;;;;;;;;;;22.60;58.40;;;;;;10325120;28;1973;-69
2023/06/12 08:53:57;;;;;;;;;;;22.60;58.50;;;;;;10325114;28;754;-68
2023/06/12 08:58:53;;;;;;;;;;;22.60;58.50;;;;;;10325299;28;1436;-71
2023/06/12 09:03:48;;;;;;;;;;;22.60;58.80;;;;;;10324335;28;845;-70
2023/06/12 09:08:43;;;;;;;;;;;22.60;58.70;;;;;;10324352;28;1913;-72
2023/06/12 09:13:39;;;;;;;;;;;22.60;58.70;;;;;;10325320;28;817;-72
2023/06/12 09:18:35;;;;;;;;;;;22.60;58.60;;;;;;10326102;28;862;-71
2023/06/12 09:23:30;;;;;;;;;;;22.60;58.50;;;;;;10331773;28;987;-72
2023/06/12 09:28:26;;;;;;;;;;;22.60;59.10;;;;;;10332586;28;1968;-72
2023/06/12 09:33:22;;;;;;;;;;;22.60;58.50;;;;;;10331886;28;871;-72
2023/06/12 09:38:17;;;;;;;;;;;22.60;58.50;;;;;;10332352;28;881;-72
2023/06/12 09:43:13;;;;;;;;;;;22.60;58.40;;;;;;10331522;28;843;-72
2023/06/12 09:48:08;;;;;;;;;;;22.60;58.40;;;;;;10330711;28;901;-72
2023/06/12 09:53:03;;;;;;;;;;;22.60;58.40;;;;;;10331700;28;1903;-72
2023/06/12 09:57:59;;;;;;;;;;;22.60;58.40;;;;;;10331005;28;1055;-72
2023/06/12 10:03:00;;;;;;;;;;;22.50;58.40;;;;;;10331554;28;1312;-72
2023/06/12 10:07:56;;;;;;;;;;;22.60;58.50;;;;;;10331281;28;855;-72
2023/06/12 10:12:51;;;;;;;;;;;22.50;58.40;;;;;;10330373;28;1906;-72
2023/06/12 10:17:47;;;;;;;;;;;22.50;58.30;;;;;;10330336;28;841;-72
2023/06/12 10:22:42;;;;;;;;;;;22.60;58.40;;;;;;10330084;28;970;-72
2023/06/12 10:27:38;;;;;;;;;;;22.50;58.30;;;;;;10330337;28;830;-72
2023/06/12 10:32:33;;;;;;;;;;;22.60;58.30;;;;;;10329061;28;1898;-72
2023/06/12 10:37:29;;;;;;;;;;;22.60;58.30;;;;;;10329520;28;794;-71
2023/06/12 10:42:24;;;;;;;;;;;22.60;58.30;;;;;;10329965;28;878;-72
2023/06/12 10:47:20;;;;;;;;;;;22.60;58.90;;;;;;10329151;28;838;-72
2023/06/12 10:52:15;;;;;;;;;;;22.60;58.30;;;;;;10328803;28;1928;-72
2023/06/12 10:57:10;;;;;;;;;;;22.60;58.30;;;;;;10328710;28;872;-72
2023/06/12 11:02:06;;;;;;;;;;;22.60;58.30;;;;;;10327869;28;1269;-72
2023/06/12 11:07:01;;;;;;;;;;;22.60;58.30;;;;;;10328300;28;802;-72
2023/06/12 11:11:56;;;;;;;;;;;22.60;58.30;;;;;;10328157;28;1918;-70
2023/06/12 11:16:52;;;;;;;;;;;22.50;58.30;;;;;;10327841;28;882;-68
2023/06/12 11:21:47;;;;;;;;;;;22.50;58.20;;;;;;10327907;28;860;-68
2023/06/12 11:26:43;;;;;;;;;;;22.50;58.30;;;;;;10327460;28;783;-69
2023/06/12 11:31:38;;;;;;;;;;;22.50;58.40;;;;;;10327771;28;1906;-69
2023/06/12 11:36:33;;;;;;;;;;;22.40;58.50;;;;;;10327049;28;861;-69
2023/06/12 11:41:29;;;;;;;;;;;22.40;58.60;;;;;;10326878;28;1030;-68
2023/06/12 11:46:25;;;;;;;;;;;22.40;58.70;;;;;;10327331;28;779;-68
2023/06/12 11:51:20;;;;;;;;;;;22.40;58.80;;;;;;10327129;28;1898;-69
2023/06/12 11:56:15;;;;;;;;;;;22.40;58.80;;;;;;10327016;28;762;-68
2023/06/12 12:01:11;;;;;;;;;;;22.40;58.80;;;;;;10325751;28;1160;-69
2023/06/12 12:06:06;;;;;;;;;;;22.40;58.90;;;;;;10326183;28;928;-68
2023/06/12 12:11:01;;;;;;;;;;;22.40;58.90;;;;;;10326003;28;1914;-69
2023/06/12 12:15:57;;;;;;;;;;;22.40;59.00;;;;;;10325952;28;840;-69
2023/06/12 12:20:53;;;;;;;;;;;22.40;58.90;;;;;;10325970;28;1136;-69
2023/06/12 12:25:49;;;;;;;;;;;22.40;58.90;;;;;;10326500;28;853;-69
2023/06/12 12:30:44;;;;;;;;;;;22.30;58.70;;;;;;10325469;28;1984;-69
2023/06/12 12:35:40;;;;;;;;;;;22.30;58.80;;;;;;10325492;28;1028;-69
2023/06/12 12:40:35;;;;;;;;;;;22.40;58.80;;;;;;10323409;28;1111;-69
2023/06/12 12:45:30;;;;;;;;;;;22.40;58.70;;;;;;10324564;28;774;-69
2023/06/12 12:50:26;;;;;;;;;;;22.40;58.70;;;;;;10325548;28;1977;-69
2023/06/12 12:55:21;;;;;;;;;;;22.40;58.60;;;;;;10329636;28;971;-69
2023/06/12 13:00:20;;;;;;;;;;;22.40;58.50;;;;;;10332659;28;1533;-69
2023/06/12 13:05:16;;;;;;;;;;;22.40;58.50;;;;;;10333501;28;825;-69
2023/06/12 13:10:11;;;;;;;;;;;22.40;58.50;;;;;;10332565;28;1899;-69
2023/06/12 13:15:06;;;;;;;;;;;22.40;58.50;;;;;;10332436;28;844;-69
2023/06/12 13:20:04;;;;;;;;;;;22.40;58.50;;;;;;10332185;28;862;-69
2023/06/12 13:24:59;;;;;;;;;;;22.40;58.40;;;;;;10331981;28;876;-69
2023/06/12 13:29:54;;;;;;;;;;;22.40;58.40;;;;;;10331304;28;1965;-69
2023/06/12 13:34:50;;;;;;;;;;;22.40;58.50;;;;;;10332177;28;1042;-69
2023/06/12 13:39:45;;;;;;;;;;;22.40;58.30;;;;;;10331376;28;964;-69
2023/06/12 13:44:41;;;;;;;;;;;22.50;58.40;;;;;;10331876;28;963;-69
2023/06/12 13:49:36;;;;;;;;;;;22.40;58.30;;;;;;10330401;28;1989;-69
2023/06/12 13:54:31;;;;;;;;;;;22.40;58.30;;;;;;10598748;22;2021;-69
2023/06/12 13:59:27;;;;;;;;;;;22.50;58.40;;;;;;10372716;28;1117;-69
2023/06/12 14:04:22;;;;;;;;;;;22.50;58.20;;;;;;10371518;28;895;-69
2023/06/12 14:09:17;;;;;;;;;;;22.50;58.30;;;;;;10371320;28;1894;-69
2023/06/12 14:14:13;;;;;;;;;;;22.50;58.40;;;;;;10371410;28;855;-69
2023/06/12 14:19:08;;;;;;;;;;;22.50;58.40;;;;;;10371626;28;856;-69
2023/06/12 14:24:04;;;;;;;;;;;22.50;58.30;;;;;;10371063;28;884;-69
2023/06/12 14:29:02;;;;;;;;;;;22.60;58.50;;;;;;10371457;28;1979;-69
2023/06/12 14:33:58;;;;;;;;;;;22.50;58.20;;;;;;10371135;28;1028;-69
2023/06/12 14:38:57;;;;;;;;;;;22.60;58.30;;;;;;10370436;28;773;-69
2023/06/12 14:49:12;;;;;;;;;;;22.60;58.30;;;;;;10630270;22;1946;-70
2023/06/12 14:54:08;;;;;;;;;;;22.60;58.30;;;;;;10371329;28;939;-70
2023/06/12 14:59:12;;;;;;;;;;;22.60;58.30;;;;;;10370643;28;864;-69
2023/06/12 15:04:07;;;;;;;;;;;22.60;58.30;;;;;;10370232;28;770;-70
2023/06/12 15:09:03;;;;;;;;;;;22.70;58.30;;;;;;10369415;28;1964;-69
2023/06/12 15:14:05;;;;;;;;;;;22.70;58.30;;;;;;10351461;28;1214;-68
2023/06/12 15:24:25;;;;;;;;;;;22.70;58.30;;;;;;10368803;28;1180;-69
2023/06/12 15:29:23;;;;;;;;;;;22.70;58.30;;;;;;10368569;28;1969;-68
2023/06/12 15:34:31;;;;;;;;;;;22.70;58.40;;;;;;10369094;28;869;-68
2023/06/12 15:39:27;;;;;;;;;;;22.70;58.40;;;;;;10368254;28;1348;-68
2023/06/12 15:44:26;;;;;;;;;;;22.70;58.60;;;;;;10364921;28;976;-68
2023/06/12 15:49:25;;;;;;;;;;;22.70;58.70;;;;;;10365669;28;1914;-68
2023/06/12 15:54:31;;;;;;;;;;;22.70;58.80;;;;;;10367925;28;788;-67
2023/06/12 15:59:32;;;;;;;;;;;22.80;58.90;;;;;;10367669;28;777;-68
2023/06/12 16:04:27;;;;;;;;;;;22.70;58.90;;;;;;10367835;28;1252;-69
2023/06/12 16:09:29;;;;;;;;;;;22.70;58.90;;;;;;10366453;28;1902;-69
2023/06/12 16:14:30;;;;;;;;;;;22.70;58.90;;;;;;10367752;28;840;-69
2023/06/12 16:19:26;;;;;;;;;;;22.80;58.90;;;;;;10367211;28;1073;-69
2023/06/12 16:24:22;;;;;;;;;;;22.80;59.00;;;;;;10366672;28;1432;-68
2023/06/12 16:29:27;;;;;;;;;;;22.80;59.10;;;;;;10366017;28;1968;-68
2023/06/12 16:34:25;;;;;;;;;;;22.80;59.10;;;;;;10366530;28;954;-68
2023/06/12 16:39:24;;;;;;;;;;;22.80;59.30;;;;;;10366495;28;1267;-69
2023/06/12 16:44:29;;;;;;;;;;;22.80;59.60;;;;;;10355125;28;1406;-69
2023/06/12 16:49:25;;;;;;;;;;;22.80;59.20;;;;;;10364717;28;1910;-69
2023/06/12 16:54:27;;;;;;;;;;;22.80;59.20;;;;;;10365424;28;1329;-70
2023/06/12 16:59:29;;;;;;;;;;;22.80;59.40;;;;;;10366747;28;888;-69
2023/06/12 17:04:25;;;;;;;;;;;22.90;59.70;;;;;;10366703;28;1087;-69
2023/06/12 17:09:21;;;;;;;;;;;22.90;59.30;;;;;;10365756;28;2243;-69
2023/06/12 17:24:58;;;;;;;;;;;22.90;59.70;;;;;;10330847;28;1416;-69
2023/06/12 17:29:55;;;;;;;;;;;22.90;59.70;;;;;;10364726;28;1909;-69
2023/06/12 17:35:05;;;;;;;;;;;22.90;59.60;;;;;;10365303;28;957;-69
2023/06/12 17:40:10;;;;;;;;;;;22.90;59.60;;;;;;10368203;28;836;-69
2023/06/12 17:45:10;;;;;;;;;;;22.90;59.80;;;;;;10372056;28;1341;-69
2023/06/12 17:50:12;;;;;;;;;;;22.90;59.60;;;;;;10372355;28;1968;-69
2023/06/12 17:55:08;;;;;;;;;;;22.90;59.70;;;;;;10371876;28;1344;-69
2023/06/12 18:00:04;;;;;;;;;;;22.90;59.70;;;;;;10336938;28;1417;-69
2023/06/12 18:05:03;;;;;;;;;;;22.90;59.60;;;;;;10372367;28;1084;-71
2023/06/12 18:09:59;;;;;;;;;;;22.90;59.70;;;;;;10371655;28;1972;-69
2023/06/12 18:14:54;;;;;;;;;;;23.00;59.60;;;;;;10370907;28;1170;-69
2023/06/12 18:25:01;;;;;;;;;;;23.00;59.90;;;;;;10637177;22;2084;-69
2023/06/12 18:29:56;;;;;;;;;;;23.00;59.80;;;;;;10371259;28;1942;-69
2023/06/12 18:34:52;;;;;;;;;;;23.00;59.80;;;;;;10352804;28;895;-69
2023/06/12 18:39:47;;;;;;;;;;;23.00;59.90;;;;;;10370754;28;749;-69
2023/06/12 18:44:42;;;;;;;;;;;23.00;59.80;;;;;;10370979;28;1209;-69
2023/06/12 18:49:41;;;;;;;;;;;23.00;59.90;;;;;;10370257;28;1969;-69
2023/06/12 18:54:36;;;;;;;;;;;23.00;59.70;;;;;;10369975;28;1203;-68
2023/06/12 18:59:35;;;;;;;;;;;23.00;59.80;;;;;;10369362;28;892;-67
2023/06/12 19:04:34;;;;;;;;;;;23.00;59.70;;;;;;10370323;28;830;-68
2023/06/12 19:09:29;;;;;;;;;;;23.00;59.70;;;;;;10369378;28;1902;-69
2023/06/12 19:14:27;;;;;;;;;;;23.00;59.60;;;;;;10369783;28;1124;-69
2023/06/12 19:19:31;;;;;;;;;;;23.10;59.70;;;;;;10369012;28;934;-68
2023/06/12 19:24:26;;;;;;;;;;;23.00;59.60;;;;;;10369880;28;1195;-68
2023/06/12 19:29:28;;;;;;;;;;;23.00;59.60;;;;;;10368694;28;1969;-67
2023/06/12 19:34:30;;;;;;;;;;;23.10;59.70;;;;;;10369219;28;852;-68
2023/06/12 19:39:25;;;;;;;;;;;23.10;59.60;;;;;;10368931;28;1392;-68
2023/06/12 19:44:24;;;;;;;;;;;23.10;59.60;;;;;;10368369;28;764;-68
2023/06/12 19:49:20;;;;;;;;;;;23.10;59.60;;;;;;10367960;28;1914;-68
2023/06/12 19:54:15;;;;;;;;;;;23.10;59.50;;;;;;10368169;28;974;-68
2023/06/12 19:59:10;;;;;;;;;;;23.10;59.50;;;;;;10368107;28;801;-66
2023/06/12 20:04:06;;;;;;;;;;;23.10;59.50;;;;;;10366607;28;745;-68
2023/06/12 20:09:01;;;;;;;;;;;23.10;59.50;;;;;;10367718;28;1964;-68
2023/06/12 20:13:58;;;;;;;;;;;23.10;59.50;;;;;;10367203;28;861;-68
2023/06/12 20:19:01;;;;;;;;;;;23.10;59.50;;;;;;10366942;28;1487;-68
2023/06/12 20:23:57;;;;;;;;;;;23.10;59.50;;;;;;10367403;28;1338;-68
2023/06/12 20:29:02;;;;;;;;;;;23.10;59.50;;;;;;10366132;28;1973;-68
2023/06/12 20:34:03;;;;;;;;;;;23.10;59.40;;;;;;10367560;28;778;-68
2023/06/12 20:39:07;;;;;;;;;;;23.10;59.40;;;;;;10366810;28;1038;-68
2023/06/12 20:44:05;;;;;;;;;;;23.20;59.40;;;;;;10367046;28;838;-68
2023/06/12 20:49:01;;;;;;;;;;;23.20;59.40;;;;;;10365371;28;1957;-68
2023/06/12 20:54:00;;;;;;;;;;;23.20;59.30;;;;;;10365343;28;1008;-69
2023/06/12 20:58:55;;;;;;;;;;;23.20;59.40;;;;;;10359708;28;1463;-68
2023/06/12 21:03:53;;;;;;;;;;;23.20;59.30;;;;;;10364674;28;918;-68
2023/06/12 21:08:49;;;;;;;;;;;23.20;59.30;;;;;;10366663;28;1969;-68
2023/06/12 21:13:48;;;;;;;;;;;23.20;59.10;;;;;;10366192;28;785;-68
2023/06/12 21:18:43;;;;;;;;;;;23.20;59.20;;;;;;10374552;28;837;-68
2023/06/12 21:23:38;;;;;;;;;;;23.20;59.00;;;;;;10373729;28;1096;-68
2023/06/12 21:28:36;;;;;;;;;;;23.20;59.10;;;;;;10373575;28;808;-68
2023/06/12 21:33:45;;;;;;;;;;;23.20;58.90;;;;;;10374464;28;1918;-68
2023/06/12 21:38:47;;;;;;;;;;;23.20;59.00;;;;;;10373817;28;792;-68
2023/06/12 21:43:43;;;;;;;;;;;23.20;58.70;;;;;;10373565;28;903;-68
2023/06/12 21:48:38;;;;;;;;;;;23.20;58.70;;;;;;10373909;28;873;-68
2023/06/12 21:53:34;;;;;;;;;;;23.20;58.60;;;;;;10373126;28;1969;-68
2023/06/12 21:58:30;;;;;;;;;;;23.20;58.70;;;;;;10372367;28;798;-68
2023/06/12 22:03:25;;;;;;;;;;;23.20;58.60;;;;;;10372195;28;909;-68
2023/06/12 22:13:38;;;;;;;;;;;23.20;58.50;;;;;;10371809;28;1897;-68
2023/06/12 22:18:36;;;;;;;;;;;23.20;58.60;;;;;;10372361;28;793;-68
2023/06/12 22:23:31;;;;;;;;;;;23.20;58.60;;;;;;10371698;28;1330;-68
2023/06/12 22:28:28;;;;;;;;;;;23.20;58.60;;;;;;10369356;28;1337;-68
2023/06/12 22:33:24;;;;;;;;;;;23.20;58.50;;;;;;10371525;28;1972;-68
2023/06/12 22:38:19;;;;;;;;;;;23.20;58.50;;;;;;10370753;28;1128;-68
2023/06/12 22:43:18;;;;;;;;;;;23.20;58.50;;;;;;10371256;28;912;-68
2023/06/12 22:48:17;;;;;;;;;;;23.20;58.40;;;;;;10370344;28;1196;-68
2023/06/12 22:53:12;;;;;;;;;;;23.20;58.40;;;;;;10370816;28;1956;-68
2023/06/12 22:58:08;;;;;;;;;;;23.20;58.40;;;;;;10370680;28;852;-68
2023/06/12 23:03:06;;;;;;;;;;;23.20;58.50;;;;;;10369181;28;1104;-68
2023/06/12 23:08:05;;;;;;;;;;;23.20;58.40;;;;;;10369766;28;758;-68
2023/06/12 23:13:01;;;;;;;;;;;23.20;58.40;;;;;;10369290;28;1959;-68
2023/06/12 23:17:58;;;;;;;;;;;23.20;58.30;;;;;;10369337;28;935;-68
2023/06/12 23:22:53;;;;;;;;;;;23.20;58.30;;;;;;10368492;28;1295;-69
2023/06/12 23:27:56;;;;;;;;;;;23.20;58.30;;;;;;10369175;28;963;-68
2023/06/12 23:32:51;;;;;;;;;;;23.20;58.40;;;;;;10368877;28;1967;-68
2023/06/12 23:37:47;;;;;;;;;;;23.20;58.30;;;;;;10368218;28;894;-68
2023/06/12 23:42:42;;;;;;;;;;;23.20;58.30;;;;;;10368353;28;731;-68
2023/06/12 23:47:41;;;;;;;;;;;23.20;58.20;;;;;;10368156;28;858;-68
2023/06/12 23:52:36;;;;;;;;;;;23.20;58.20;;;;;;10367878;28;1905;-68
2023/06/12 23:57:31;;;;;;;;;;;23.20;58.20;;;;;;10367717;28;1322;-68
